Time;durP1;ratioP1;P1;durP2;ratioP2;P2;SDS_P1;SDS_P2;PMS_P1;PMS_P2;Temp;Humidity;BMP_temperature;BMP_pressure;BME280_temperature;BME280_humidity;BME280_pressure;Samples;Min_cycle;Max_cycle;Signal;HPM_P1;HPM_P2
2022/06/05 00:02:05;;;;;;;0.82;0.82;;;25.70;54.70;;;;;;5107409;28;20047;-67
2022/06/05 00:04:52;;;;;;;1.10;1.00;;;25.70;54.60;;;;;;5084548;28;20056;-67
2022/06/05 00:07:47;;;;;;;0.80;0.80;;;25.70;54.60;;;;;;5085549;28;20345;-67
2022/06/05 00:10:23;;;;;;;0.60;0.60;;;25.70;54.60;;;;;;5085240;28;20105;-67
2022/06/05 00:13:16;;;;;;;0.40;0.40;;;25.70;54.60;;;;;;5087004;28;20048;-67
2022/06/05 00:15:44;;;;;;;0.60;0.60;;;25.70;54.60;;;;;;5085913;28;20507;-67
2022/06/05 00:18:11;;;;;;;0.68;0.68;;;25.70;54.60;;;;;;5085506;28;20126;-68
2022/06/05 00:20:41;;;;;;;0.63;0.63;;;25.70;54.60;;;;;;5085135;28;20097;-67
2022/06/05 00:23:09;;;;;;;0.50;0.50;;;25.60;54.50;;;;;;5086349;28;20047;-67
2022/06/05 00:26:03;;;;;;;0.60;0.60;;;25.70;54.60;;;;;;5097555;28;20089;-67
2022/06/05 00:29:06;;;;;;;0.85;0.85;;;25.60;54.60;;;;;;5106702;28;20055;-67
2022/06/05 00:32:11;;;;;;;0.77;0.75;;;25.60;54.60;;;;;;5106866;28;20077;-67
2022/06/05 00:34:38;;;;;;;0.55;0.55;;;25.60;54.60;;;;;;5105369;28;20099;-67
2022/06/05 00:37:26;;;;;;;0.68;0.68;;;25.60;54.60;;;;;;5106788;28;20043;-67
2022/06/05 00:40:27;;;;;;;0.40;0.40;;;25.60;54.60;;;;;;5106686;28;20048;-67
2022/06/05 00:42:56;;;;;;;1.08;0.82;;;25.60;54.60;;;;;;5102716;28;20074;-67
2022/06/05 00:45:27;;;;;;;0.80;0.80;;;25.60;54.60;;;;;;5104800;28;20073;-67
2022/06/05 00:47:55;;;;;;;0.50;0.50;;;25.50;54.60;;;;;;5106678;28;20051;-67
2022/06/05 00:50:27;;;;;;;0.75;0.50;;;25.50;54.60;;;;;;5106370;28;20043;-67
2022/06/05 00:52:58;;;;;;;0.90;0.80;;;25.50;54.60;;;;;;5104883;28;20078;-67
2022/06/05 00:55:29;;;;;;;0.68;0.68;;;25.50;54.60;;;;;;5106526;28;20047;-67
2022/06/05 00:57:57;;;;;;;0.60;0.60;;;25.50;54.60;;;;;;5106394;28;20055;-67
2022/06/05 01:00:30;;;;;;;0.50;0.50;;;25.50;54.60;;;;;;5106800;28;20051;-67
2022/06/05 01:03:01;;;;;;;0.50;0.50;;;25.50;54.60;;;;;;5106747;27;20050;-68
2022/06/05 01:05:28;;;;;;;0.55;0.55;;;25.50;54.60;;;;;;5104460;28;20508;-67
2022/06/05 01:07:56;;;;;;;1.60;1.20;;;25.50;54.60;;;;;;5107009;28;20588;-67
2022/06/05 01:10:48;;;;;;;0.63;0.63;;;25.40;54.60;;;;;;5105933;28;20039;-67
2022/06/05 01:13:38;;;;;;;0.40;0.40;;;25.50;54.70;;;;;;5104248;28;20533;-67
2022/06/05 01:16:25;;;;;;;0.60;0.60;;;25.40;54.60;;;;;;5104590;28;20052;-67
2022/06/05 01:19:32;;;;;;;0.60;0.60;;;25.40;54.70;;;;;;5106636;28;20047;-67
2022/06/05 01:22:33;;;;;;;0.68;0.68;;;25.40;54.70;;;;;;5107764;28;20065;-67
2022/06/05 01:25:40;;;;;;;0.57;0.57;;;25.40;54.70;;;;;;5097367;28;20081;-67
2022/06/05 01:28:16;;;;;;;0.60;0.60;;;25.40;54.70;;;;;;5108746;28;20052;-67
2022/06/05 01:31:20;;;;;;;0.40;0.40;;;25.40;54.70;;;;;;5110313;28;20043;-67
2022/06/05 01:33:59;;;;;;;0.68;0.68;;;25.40;54.80;;;;;;5095119;28;20087;-67
2022/06/05 01:36:36;;;;;;;1.27;0.77;;;25.40;54.80;;;;;;5109794;28;20177;-67
2022/06/05 01:39:14;;;;;;;0.30;0.30;;;25.40;54.80;;;;;;5110187;28;20081;-67
2022/06/05 01:41:52;;;;;;;0.50;0.50;;;25.40;54.80;;;;;;5109693;28;20055;-67
2022/06/05 01:44:33;;;;;;;0.90;0.60;;;25.40;54.90;;;;;;5110393;28;20512;-67
2022/06/05 01:47:06;;;;;;;0.70;0.70;;;25.40;54.90;;;;;;5108599;28;20054;-67
2022/06/05 01:49:42;;;;;;;0.52;0.52;;;25.40;54.90;;;;;;5105717;28;20055;-67
2022/06/05 01:52:29;;;;;;;0.60;0.50;;;25.40;54.90;;;;;;5108326;28;20426;-67
2022/06/05 01:55:16;;;;;;;0.60;0.60;;;25.40;54.90;;;;;;5110168;28;20108;-67
2022/06/05 01:57:44;;;;;;;1.30;1.20;;;25.40;54.90;;;;;;5109376;28;20055;-68
2022/06/05 02:00:18;;;;;;;0.70;0.70;;;25.30;54.90;;;;;;5109501;28;20092;-67
2022/06/05 02:02:55;;;;;;;0.45;0.45;;;25.40;55.00;;;;;;5109175;28;20305;-67
2022/06/05 02:05:31;;;;;;;0.82;0.80;;;25.30;54.90;;;;;;5109258;28;20078;-67
2022/06/05 02:08:07;;;;;;;0.50;0.50;;;25.40;55.00;;;;;;5108694;28;20055;-67
2022/06/05 02:10:45;;;;;;;0.50;0.50;;;25.30;54.90;;;;;;5109446;28;20043;-67
2022/06/05 02:13:12;;;;;;;0.52;0.52;;;25.30;54.90;;;;;;5109493;27;20133;-67
2022/06/05 02:15:39;;;;;;;0.70;0.70;;;25.40;55.00;;;;;;5108631;28;20058;-67
2022/06/05 02:18:06;;;;;;;0.73;0.73;;;25.30;54.90;;;;;;5108674;28;20138;-67
2022/06/05 02:20:35;;;;;;;0.85;0.85;;;25.30;55.00;;;;;;5104677;28;20375;-68
2022/06/05 02:23:05;;;;;;;0.60;0.60;;;25.30;55.00;;;;;;5108932;28;20039;-67
2022/06/05 02:25:34;;;;;;;2.55;0.70;;;25.30;55.00;;;;;;5109239;28;20134;-68
2022/06/05 02:28:02;;;;;;;0.68;0.55;;;25.30;55.00;;;;;;5108333;28;20047;-67
2022/06/05 02:30:57;;;;;;;0.50;0.50;;;25.30;55.00;;;;;;5107424;28;20067;-67
2022/06/05 02:33:53;;;;;;;0.57;0.57;;;25.30;55.00;;;;;;5107199;28;20593;-67
2022/06/05 02:36:49;;;;;;;0.40;0.40;;;25.30;55.00;;;;;;5108749;27;20164;-67
2022/06/05 02:39:50;;;;;;;0.57;0.57;;;25.30;55.00;;;;;;5107111;28;20527;-67
2022/06/05 02:42:36;;;;;;;0.57;0.57;;;25.30;55.00;;;;;;5107229;28;20096;-67
2022/06/05 02:45:25;;;;;;;0.55;0.50;;;25.20;55.00;;;;;;5108496;28;20047;-67
2022/06/05 02:48:01;;;;;;;0.65;0.65;;;25.20;55.00;;;;;;5106243;28;20047;-68
2022/06/05 02:50:45;;;;;;;0.40;0.40;;;25.20;55.00;;;;;;5108737;28;20063;-67
2022/06/05 02:53:13;;;;;;;0.50;0.50;;;25.20;55.00;;;;;;5104291;28;20472;-67
2022/06/05 02:55:41;;;;;;;0.50;0.50;;;25.20;55.00;;;;;;5107045;28;20101;-67
2022/06/05 02:58:11;;;;;;;0.60;0.60;;;25.20;55.00;;;;;;5107130;28;20043;-67
2022/06/05 03:00:39;;;;;;;0.80;0.80;;;25.20;55.00;;;;;;5107080;27;20081;-68
2022/06/05 03:05:54;;;;;;;0.55;0.50;;;25.20;55.00;;;;;;5105957;28;20487;-67
2022/06/05 03:08:21;;;;;;;0.90;0.75;;;25.20;55.00;;;;;;5105951;28;20047;-67
2022/06/05 03:10:48;;;;;;;0.60;0.60;;;25.20;55.00;;;;;;5107340;28;20055;-67
2022/06/05 03:13:17;;;;;;;0.50;0.50;;;25.20;55.00;;;;;;5106909;28;20048;-67
2022/06/05 03:15:44;;;;;;;0.55;0.55;;;25.20;55.10;;;;;;5107044;28;20128;-67
2022/06/05 03:18:13;;;;;;;0.50;0.50;;;25.20;55.00;;;;;;5106592;28;20058;-67
2022/06/05 03:20:41;;;;;;;0.43;0.43;;;25.20;55.00;;;;;;5105260;28;20097;-68
2022/06/05 03:23:09;;;;;;;1.45;0.38;;;25.20;55.60;;;;;;5106506;28;20054;-67
2022/06/05 03:25:39;;;;;;;0.82;0.82;;;25.20;55.00;;;;;;5102208;28;20054;-67
2022/06/05 03:28:08;;;;;;;0.40;0.40;;;25.20;55.00;;;;;;5104403;28;20047;-67
2022/06/05 03:30:38;;;;;;;0.50;0.50;;;25.20;55.10;;;;;;5106586;28;20120;-67
2022/06/05 03:33:06;;;;;;;0.55;0.43;;;25.20;55.00;;;;;;5106539;28;20052;-67
2022/06/05 03:35:38;;;;;;;0.55;0.55;;;25.20;55.00;;;;;;5106477;28;20043;-67
2022/06/05 03:38:06;;;;;;;0.70;0.60;;;25.20;55.00;;;;;;5106937;28;20310;-67
2022/06/05 03:40:33;;;;;;;0.68;0.68;;;25.30;55.00;;;;;;5106442;28;20055;-67
2022/06/05 03:43:01;;;;;;;0.50;0.50;;;25.30;55.00;;;;;;5106040;28;20449;-67
2022/06/05 03:45:28;;;;;;;1.25;0.95;;;25.30;54.90;;;;;;5104295;28;20058;-67
2022/06/05 03:47:56;;;;;;;0.45;0.45;;;25.30;54.90;;;;;;5105025;28;20092;-67
2022/06/05 03:50:23;;;;;;;0.75;0.57;;;25.30;54.80;;;;;;5106295;28;20120;-67
2022/06/05 03:52:51;;;;;;;0.70;0.70;;;25.40;54.90;;;;;;5105638;28;20040;-67
2022/06/05 03:55:21;;;;;;;0.50;0.50;;;25.40;54.80;;;;;;5104607;28;20640;-67
2022/06/05 03:57:49;;;;;;;0.50;0.50;;;25.40;54.70;;;;;;5106241;27;20040;-67
2022/06/05 04:00:19;;;;;;;0.50;0.50;;;25.40;54.60;;;;;;5101653;27;20050;-66
2022/06/05 04:02:47;;;;;;;0.50;0.50;;;25.40;54.60;;;;;;5104939;28;20107;-67
2022/06/05 04:05:17;;;;;;;0.43;0.43;;;25.40;54.60;;;;;;5106332;28;20039;-66
2022/06/05 04:07:44;;;;;;;;;;;25.40;54.50;;;;;;5106032;28;20056;-67
2022/06/05 04:10:14;;;;;;;0.47;0.47;;;25.50;54.50;;;;;;5104744;28;19920;-67
2022/06/05 04:12:41;;;;;;;0.50;0.50;;;25.50;54.90;;;;;;5105974;28;20350;-67
2022/06/05 04:15:09;;;;;;;0.40;0.40;;;25.50;54.30;;;;;;5105747;28;20453;-67
2022/06/05 04:17:37;;;;;;;0.45;0.45;;;25.50;54.30;;;;;;5105747;28;20479;-67
2022/06/05 04:20:05;;;;;;;0.70;0.70;;;25.60;54.20;;;;;;5105702;28;20346;-67
2022/06/05 04:22:38;;;;;;;0.80;0.68;;;25.60;54.20;;;;;;5105712;28;20044;-67
2022/06/05 04:25:08;;;;;;;0.50;0.50;;;25.60;54.10;;;;;;5104298;28;20090;-66
2022/06/05 04:27:37;;;;;;;0.60;0.60;;;25.60;54.10;;;;;;5105819;28;20051;-67
2022/06/05 04:30:05;;;;;;;0.50;0.50;;;25.70;54.10;;;;;;5100660;28;20040;-67
2022/06/05 04:32:32;;;;;;;0.50;0.50;;;25.70;54.00;;;;;;5105585;28;20538;-68
2022/06/05 04:34:59;;;;;;;0.50;0.50;;;25.70;53.90;;;;;;5105372;28;20052;-67
2022/06/05 04:37:26;;;;;;;0.55;0.55;;;25.70;53.90;;;;;;5105261;28;20048;-67
2022/06/05 04:39:54;;;;;;;1.33;0.45;;;25.80;53.90;;;;;;5105445;28;20093;-67
2022/06/05 04:42:21;;;;;;;0.47;0.40;;;25.80;53.80;;;;;;5105213;28;20055;-67
2022/06/05 04:44:48;;;;;;;0.50;0.50;;;25.80;53.80;;;;;;5106052;28;20180;-67
2022/06/05 04:47:15;;;;;;;1.58;0.60;;;25.80;53.70;;;;;;5105343;28;20092;-67
2022/06/05 04:49:42;;;;;;;2.30;0.55;;;25.80;53.60;;;;;;5105107;28;20101;-67
2022/06/05 04:52:09;;;;;;;0.50;0.50;;;25.90;53.60;;;;;;5105346;28;20527;-66
2022/06/05 04:54:36;;;;;;;0.40;0.40;;;25.90;53.50;;;;;;5105459;28;20039;-66
2022/06/05 04:57:04;;;;;;;0.40;0.40;;;25.90;53.60;;;;;;5107061;28;20557;-67
2022/06/05 04:59:31;;;;;;;0.50;0.50;;;25.90;53.50;;;;;;5109073;28;20078;-67
2022/06/05 05:01:59;;;;;;;0.45;0.45;;;25.90;53.50;;;;;;5105055;28;20082;-67
2022/06/05 05:04:26;;;;;;;0.52;0.40;;;25.90;53.40;;;;;;5109003;28;20342;-67
2022/06/05 05:06:53;;;;;;;0.50;0.50;;;25.90;53.30;;;;;;5107692;28;20159;-67
2022/06/05 05:09:20;;;;;;;0.50;0.50;;;25.90;53.50;;;;;;5108615;28;20043;-67
2022/06/05 05:11:47;;;;;;;0.35;0.35;;;25.90;53.70;;;;;;5108791;28;20096;-66
2022/06/05 05:14:14;;;;;;;0.82;0.40;;;25.80;53.90;;;;;;5109791;28;20296;-66
2022/06/05 05:16:42;;;;;;;0.73;0.70;;;25.70;54.40;;;;;;5108816;28;20071;-67
2022/06/05 05:19:09;;;;;;;0.50;0.50;;;25.50;54.80;;;;;;5109280;28;20054;-67
2022/06/05 05:21:37;;;;;;;0.63;0.63;;;25.30;55.10;;;;;;5108915;28;20051;-67
2022/06/05 05:24:05;;;;;;;0.55;0.55;;;25.00;54.50;;;;;;5108122;28;20060;-67
2022/06/05 05:26:34;;;;;;;0.95;0.70;;;24.80;53.70;;;;;;5108291;28;20515;-66
2022/06/05 05:29:03;;;;;;;0.43;0.43;;;24.40;52.60;;;;;;5107762;28;20043;-68
2022/06/05 05:31:36;;;;;;;0.47;0.47;;;24.10;52.00;;;;;;5106728;28;20487;-66
2022/06/05 05:34:04;;;;;;;0.40;0.40;;;23.70;51.70;;;;;;5104550;28;20489;-67
2022/06/05 05:36:32;;;;;;;0.73;0.60;;;23.30;50.80;;;;;;5108506;28;20539;-67
2022/06/05 05:44:48;;;;;;;0.50;0.50;;;22.10;51.60;;;;;;5108776;28;20097;-66
2022/06/05 05:47:22;;;;;;;0.60;0.60;;;21.70;53.50;;;;;;5108278;28;20108;-66
2022/06/05 05:50:01;;;;;;;2.05;0.60;;;21.40;53.20;;;;;;5107863;28;20464;-66
2022/06/05 05:52:29;;;;;;;0.70;0.70;;;21.10;54.10;;;;;;5106471;28;20083;-66
2022/06/05 05:54:56;;;;;;;0.40;0.40;;;20.90;54.80;;;;;;5108523;28;20047;-66
2022/06/05 05:57:24;;;;;;;1.35;0.60;;;20.80;55.50;;;;;;5108187;28;20092;-66
2022/06/05 05:59:51;;;;;;;0.65;0.65;;;20.70;56.30;;;;;;5108078;27;20050;-66
2022/06/05 06:02:21;;;;;;;0.43;0.43;;;20.60;57.40;;;;;;5107423;28;20138;-66
2022/06/05 06:04:49;;;;;;;;;;;20.50;57.80;;;;;;5103271;28;20051;-66
2022/06/05 06:07:18;;;;;;;0.60;0.60;;;20.40;57.40;;;;;;5107745;28;19976;-66
2022/06/05 06:09:45;;;;;;;0.47;0.45;;;20.40;57.60;;;;;;5106828;28;20450;-66
2022/06/05 06:12:21;;;;;;;0.50;0.50;;;20.30;57.50;;;;;;5107925;28;20062;-66
2022/06/05 06:14:48;;;;;;;0.63;0.63;;;20.30;57.20;;;;;;5108330;28;20104;-66
2022/06/05 06:17:16;;;;;;;0.73;0.73;;;20.20;57.50;;;;;;5107226;28;20484;-66
2022/06/05 06:19:43;;;;;;;3.85;1.08;;;20.20;57.70;;;;;;5106750;28;20453;-66
2022/06/05 06:22:10;;;;;;;0.80;0.80;;;20.10;57.90;;;;;;5107171;28;20285;-67
2022/06/05 06:24:38;;;;;;;0.73;0.70;;;20.10;58.00;;;;;;5106151;28;20453;-66
2022/06/05 06:27:05;;;;;;;0.95;0.60;;;20.10;58.10;;;;;;5106555;28;20083;-66
2022/06/05 06:29:32;;;;;;;0.40;0.40;;;20.00;57.70;;;;;;5107297;28;20055;-66
2022/06/05 06:31:59;;;;;;;0.80;0.80;;;20.00;58.10;;;;;;5107091;28;20048;-66
2022/06/05 06:34:27;;;;;;;0.65;0.65;;;19.90;57.90;;;;;;5104284;28;20580;-66
2022/06/05 06:36:54;;;;;;;1.45;1.02;;;19.80;57.80;;;;;;5105268;28;20743;-66
2022/06/05 06:39:21;;;;;;;0.70;0.70;;;19.80;57.50;;;;;;5108043;28;20697;-66
2022/06/05 06:41:49;;;;;;;1.05;0.85;;;19.70;57.50;;;;;;5105382;28;20051;-66
2022/06/05 06:44:17;;;;;;;0.80;0.80;;;19.60;57.60;;;;;;5107463;28;20575;-66
2022/06/05 06:46:45;;;;;;;0.90;0.90;;;19.50;58.10;;;;;;5107561;28;20046;-66
2022/06/05 06:49:12;;;;;;;1.67;0.90;;;19.40;58.30;;;;;;5106971;28;20081;-66
2022/06/05 06:51:40;;;;;;;0.80;0.80;;;19.30;58.80;;;;;;5106709;27;20095;-66
2022/06/05 06:54:07;;;;;;;0.70;0.70;;;19.20;58.30;;;;;;5106947;27;20070;-66
2022/06/05 06:56:36;;;;;;;0.52;0.52;;;19.10;58.50;;;;;;5105933;28;20043;-66
2022/06/05 06:59:04;;;;;;;0.80;0.80;;;19.00;58.80;;;;;;5106879;28;20047;-66
2022/06/05 07:01:32;;;;;;;0.60;0.60;;;18.90;59.30;;;;;;5107034;28;20047;-66
2022/06/05 07:03:59;;;;;;;0.80;0.80;;;18.80;58.90;;;;;;5106158;28;20043;-66
2022/06/05 07:06:27;;;;;;;1.10;1.00;;;18.70;60.00;;;;;;5101940;28;20051;-66
2022/06/05 07:08:54;;;;;;;1.45;0.90;;;18.70;60.40;;;;;;5106020;28;20487;-66
2022/06/05 07:11:22;;;;;;;1.00;1.00;;;18.60;61.10;;;;;;5105644;28;20100;-66
2022/06/05 07:13:50;;;;;;;0.82;0.82;;;18.60;60.60;;;;;;5107026;28;20055;-66
2022/06/05 07:16:18;;;;;;;0.85;0.73;;;18.60;60.80;;;;;;5107051;28;20048;-66
2022/06/05 07:18:46;;;;;;;0.80;0.80;;;18.60;60.40;;;;;;5106239;28;20485;-66
2022/06/05 07:21:21;;;;;;;1.25;0.80;;;18.50;60.70;;;;;;5106400;28;20096;-66
2022/06/05 07:23:53;;;;;;;0.90;0.90;;;18.50;60.70;;;;;;5106547;28;20047;-66
2022/06/05 07:26:22;;;;;;;0.60;0.60;;;18.50;60.90;;;;;;5106901;28;20127;-69
2022/06/05 07:28:49;;;;;;;2.33;0.88;;;18.50;60.70;;;;;;5106412;28;20055;-66
2022/06/05 07:31:18;;;;;;;0.65;0.65;;;18.50;61.30;;;;;;5087731;28;20052;-66
2022/06/05 07:33:46;;;;;;;1.35;0.82;;;18.50;61.60;;;;;;5106361;28;20051;-66
2022/06/05 07:36:16;;;;;;;1.00;1.00;;;18.50;62.50;;;;;;5106090;28;20501;-66
2022/06/05 07:38:43;;;;;;;0.90;0.90;;;18.60;62.00;;;;;;5101729;28;20240;-66
2022/06/05 07:41:26;;;;;;;0.80;0.80;;;18.60;62.50;;;;;;5106308;28;20105;-66
2022/06/05 07:43:54;;;;;;;1.00;1.00;;;18.70;62.30;;;;;;5106300;28;20036;-66
2022/06/05 07:46:22;;;;;;;0.88;0.82;;;18.70;62.10;;;;;;5106312;28;20047;-66
2022/06/05 07:48:49;;;;;;;0.98;0.98;;;18.70;61.50;;;;;;5104511;28;20063;-66
2022/06/05 07:54:28;;;;;;;0.85;0.85;;;18.70;61.80;;;;;;5084477;28;20089;-66
2022/06/05 07:57:00;;;;;;;0.90;0.90;;;18.70;62.10;;;;;;5086043;28;20098;-66
2022/06/05 07:59:31;;;;;;;1.02;1.00;;;18.70;61.00;;;;;;5085748;28;20101;-66
2022/06/05 08:01:59;;;;;;;;;;;18.70;61.70;;;;;;5086005;28;20432;-66
2022/06/05 08:04:27;;;;;;;0.82;0.82;;;18.70;61.90;;;;;;5085452;28;20227;-67
2022/06/05 08:06:57;;;;;;;1.25;1.20;;;18.70;62.00;;;;;;5085300;28;20109;-65
2022/06/05 08:09:26;;;;;;;0.93;0.93;;;18.70;61.20;;;;;;5081069;28;20101;-66
2022/06/05 08:11:53;;;;;;;0.95;0.95;;;18.70;62.00;;;;;;5085021;28;20734;-66
2022/06/05 08:14:20;;;;;;;0.90;0.90;;;18.80;62.10;;;;;;5105252;28;20047;-66
2022/06/05 08:16:47;;;;;;;1.17;1.08;;;18.70;62.10;;;;;;5104189;28;20472;-66
2022/06/05 08:19:18;;;;;;;1.00;1.00;;;18.80;61.80;;;;;;5105898;28;20051;-66
2022/06/05 08:21:46;;;;;;;1.23;1.23;;;18.80;62.20;;;;;;5106073;28;20043;-66
2022/06/05 08:24:14;;;;;;;1.30;1.20;;;18.80;61.20;;;;;;5105124;28;20044;-65
2022/06/05 08:26:41;;;;;;;1.13;1.13;;;18.80;62.20;;;;;;5105809;28;20172;-66
2022/06/05 08:29:09;;;;;;;0.80;0.80;;;18.80;62.00;;;;;;5105339;28;20104;-66
2022/06/05 08:31:37;;;;;;;1.00;1.00;;;18.80;61.10;;;;;;5104967;28;20480;-66
2022/06/05 08:34:06;;;;;;;1.27;1.27;;;18.80;61.50;;;;;;5104919;28;20109;-66
2022/06/05 08:36:33;;;;;;;0.98;0.98;;;18.80;61.30;;;;;;5105581;28;20093;-66
2022/06/05 08:42:13;;;;;;;1.15;1.15;;;18.80;61.40;;;;;;5100759;28;20220;-66
2022/06/05 08:44:51;;;;;;;0.90;0.90;;;18.80;62.50;;;;;;5104183;28;20232;-66
2022/06/05 08:47:35;;;;;;;1.33;1.30;;;18.80;62.40;;;;;;5105387;28;20120;-66
2022/06/05 08:50:23;;;;;;;1.35;1.25;;;18.90;62.90;;;;;;5105202;28;20556;-66
2022/06/05 08:52:58;;;;;;;1.33;1.23;;;18.90;62.70;;;;;;5103659;28;20444;-66
2022/06/05 08:55:41;;;;;;;1.38;1.33;;;19.00;61.90;;;;;;5105299;28;20332;-65
2022/06/05 08:58:33;;;;;;;1.55;1.45;;;19.00;62.60;;;;;;5105728;28;20367;-66
2022/06/05 09:01:19;;;;;;;1.30;1.20;;;19.00;62.60;;;;;;5104333;28;20503;-66
2022/06/05 09:03:52;;;;;;;1.35;1.30;;;19.10;62.70;;;;;;5105668;28;20105;-66
2022/06/05 09:06:41;;;;;;;1.50;1.40;;;19.10;62.40;;;;;;5105081;28;20087;-66
2022/06/05 09:09:18;;;;;;;1.30;1.30;;;19.10;61.70;;;;;;5104043;28;20111;-66
2022/06/05 09:11:53;;;;;;;1.50;1.40;;;19.20;63.00;;;;;;5100753;28;20046;-66
2022/06/05 09:14:45;;;;;;;1.20;1.10;;;19.20;62.30;;;;;;5104233;28;20104;-66
2022/06/05 09:17:15;;;;;;;1.30;1.30;;;19.20;63.20;;;;;;5104078;28;20044;-66
2022/06/05 09:19:43;;;;;;;1.13;1.10;;;19.30;64.10;;;;;;5087358;28;20435;-66
2022/06/05 09:22:27;;;;;;;1.10;1.10;;;19.30;63.40;;;;;;5105544;28;20044;-66
2022/06/05 09:25:24;;;;;;;1.35;1.27;;;19.40;63.40;;;;;;5104780;28;20040;-66
2022/06/05 09:28:33;;;;;;;1.33;1.30;;;19.40;63.10;;;;;;5105164;28;20075;-66
2022/06/05 09:31:25;;;;;;;1.27;1.27;;;19.50;63.00;;;;;;5103113;28;20047;-66
2022/06/05 09:33:54;;;;;;;1.52;1.42;;;19.50;62.40;;;;;;5104704;28;20429;-66
2022/06/05 09:36:26;;;;;;;1.35;1.30;;;19.50;62.70;;;;;;5104473;28;20047;-66
2022/06/05 09:39:25;;;;;;;1.27;1.25;;;19.60;62.80;;;;;;5104569;28;20047;-66
2022/06/05 09:42:23;;;;;;;2.03;1.60;;;19.60;62.70;;;;;;5105062;28;20275;-65
2022/06/05 09:45:15;;;;;;;1.30;1.30;;;19.60;62.10;;;;;;5088690;27;20117;-66
2022/06/05 09:48:12;;;;;;;1.25;1.25;;;19.50;63.00;;;;;;5087922;28;20500;-68
2022/06/05 09:50:39;;;;;;;1.38;1.38;;;19.60;62.90;;;;;;5087993;28;20072;-65
2022/06/05 09:53:15;;;;;;;1.60;1.50;;;19.60;61.70;;;;;;5086961;28;20097;-66
2022/06/05 09:56:21;;;;;;;1.40;1.30;;;19.50;62.50;;;;;;5103258;28;20044;-68
2022/06/05 09:59:10;;;;;;;1.73;1.60;;;19.50;62.10;;;;;;5107752;28;20035;-65
2022/06/05 10:01:50;;;;;;;1.30;1.23;;;19.40;61.50;;;;;;5107572;28;20040;-66
2022/06/05 10:04:21;;;;;;;1.58;1.48;;;19.40;62.40;;;;;;5107530;28;20130;-66
2022/06/05 10:06:53;;;;;;;1.55;1.50;;;19.40;62.60;;;;;;5107733;28;20519;-66
2022/06/05 10:09:25;;;;;;;1.20;1.20;;;19.40;61.50;;;;;;5108049;27;20052;-66
2022/06/05 10:12:13;;;;;;;1.50;1.50;;;19.40;61.90;;;;;;5108002;28;20127;-66
2022/06/05 10:15:09;;;;;;;1.52;1.45;;;19.40;60.70;;;;;;5102804;28;20047;-66
2022/06/05 10:17:49;;;;;;;1.80;1.70;;;19.40;62.20;;;;;;5107688;28;20518;-66
2022/06/05 10:20:46;;;;;;;1.48;1.48;;;19.30;61.70;;;;;;5108303;28;20578;-66
2022/06/05 10:23:45;;;;;;;1.80;1.70;;;19.30;62.60;;;;;;5108280;28;20044;-66
2022/06/05 10:26:28;;;;;;;1.73;1.63;;;19.40;62.40;;;;;;5107368;28;20420;-66
2022/06/05 10:29:14;;;;;;;1.73;1.63;;;19.30;62.20;;;;;;5108288;28;20457;-66
2022/06/05 10:32:04;;;;;;;1.80;1.70;;;19.40;61.40;;;;;;5107647;28;20135;-66
2022/06/05 10:34:48;;;;;;;1.63;1.60;;;19.30;62.10;;;;;;5106810;28;20090;-65
2022/06/05 10:37:44;;;;;;;1.52;1.42;;;19.40;61.00;;;;;;5107674;28;20483;-66
2022/06/05 10:40:25;;;;;;;1.63;1.52;;;19.40;61.90;;;;;;5106209;28;20035;-66
2022/06/05 10:42:55;;;;;;;;;;;19.30;60.90;;;;;;5087171;28;20047;-66
2022/06/05 10:45:49;;;;;;;1.60;1.50;;;19.30;61.20;;;;;;5090131;28;19923;-65
2022/06/05 10:48:56;;;;;;;1.63;1.52;;;19.30;61.40;;;;;;5095229;28;20136;-66
2022/06/05 10:51:51;;;;;;;1.70;1.60;;;19.30;62.30;;;;;;5091598;28;20511;-66
2022/06/05 10:54:39;;;;;;;1.70;1.60;;;19.30;61.60;;;;;;5093632;28;20097;-66
2022/06/05 10:57:33;;;;;;;1.70;1.60;;;19.20;62.20;;;;;;5088291;28;20144;-66
2022/06/05 11:00:24;;;;;;;1.90;1.80;;;19.30;61.60;;;;;;5091331;28;20493;-66
2022/06/05 11:03:18;;;;;;;1.55;1.45;;;19.30;61.30;;;;;;5090995;28;20101;-66
2022/06/05 11:06:07;;;;;;;1.83;1.73;;;19.30;61.40;;;;;;5089663;28;20119;-65
2022/06/05 11:08:54;;;;;;;1.73;1.63;;;19.20;61.40;;;;;;5091791;28;20048;-66
2022/06/05 11:14:39;;;;;;;1.42;1.42;;;19.20;61.90;;;;;;5100911;28;20531;-65
2022/06/05 11:17:46;;;;;;;2.40;2.20;;;19.20;61.70;;;;;;5089496;28;20500;-66
2022/06/05 11:20:21;;;;;;;1.75;1.65;;;19.20;62.10;;;;;;5103800;28;20127;-65
2022/06/05 11:23:06;;;;;;;1.77;1.67;;;19.20;61.70;;;;;;5104539;28;20442;-65
2022/06/05 11:25:45;;;;;;;1.25;1.23;;;19.10;62.20;;;;;;5100057;28;20090;-66
2022/06/05 11:28:52;;;;;;;1.42;1.40;;;19.20;62.50;;;;;;5085548;28;20532;-66
2022/06/05 11:31:59;;;;;;;1.65;1.55;;;19.20;62.80;;;;;;5095454;28;20043;-65
2022/06/05 11:34:48;;;;;;;1.92;1.83;;;19.20;62.70;;;;;;5097354;28;20047;-65
2022/06/05 11:37:41;;;;;;;1.60;1.50;;;19.20;61.70;;;;;;5088381;28;20040;-66
2022/06/05 11:40:35;;;;;;;1.73;1.63;;;19.20;62.30;;;;;;5089571;28;20523;-66
2022/06/05 11:43:26;;;;;;;1.25;1.15;;;19.20;61.00;;;;;;5090935;28;20101;-66
2022/06/05 11:46:26;;;;;;;;;;;19.20;62.70;;;;;;5095818;28;20082;-66
2022/06/05 11:49:27;;;;;;;1.80;1.70;;;19.30;61.60;;;;;;5097119;28;20108;-65
2022/06/05 11:52:19;;;;;;;1.52;1.42;;;19.30;62.00;;;;;;5084418;28;20105;-65
2022/06/05 11:55:04;;;;;;;1.90;1.80;;;19.20;61.90;;;;;;5093743;28;20102;-66
2022/06/05 11:57:40;;;;;;;1.52;1.42;;;19.20;61.70;;;;;;5085711;28;20495;-66
2022/06/05 12:00:25;;;;;;;1.80;1.70;;;19.20;61.30;;;;;;5102015;28;20299;-66
2022/06/05 12:03:28;;;;;;;1.60;1.50;;;19.20;62.40;;;;;;5103745;28;20047;-65
2022/06/05 12:06:10;;;;;;;1.70;1.60;;;19.20;62.30;;;;;;5100577;28;20039;-65
2022/06/05 12:08:45;;;;;;;1.40;1.40;;;19.20;62.00;;;;;;5098679;28;20585;-65
2022/06/05 12:11:27;;;;;;;1.55;1.45;;;19.30;63.20;;;;;;5101440;28;20473;-65
2022/06/05 12:14:21;;;;;;;1.50;1.50;;;19.40;62.10;;;;;;5085717;28;20040;-65
2022/06/05 12:17:15;;;;;;;1.35;1.30;;;19.40;61.60;;;;;;5085265;28;20098;-65
2022/06/05 12:20:16;;;;;;;1.50;1.40;;;19.40;63.00;;;;;;5081197;28;20458;-65
2022/06/05 12:23:06;;;;;;;1.67;1.58;;;19.50;62.80;;;;;;5085394;28;20392;-65
2022/06/05 12:26:01;;;;;;;1.00;1.00;;;19.50;62.30;;;;;;5097916;28;20063;-65
2022/06/05 12:28:42;;;;;;;1.60;1.50;;;19.60;61.80;;;;;;5085007;28;20105;-65
2022/06/05 12:31:23;;;;;;;1.33;1.17;;;19.60;62.40;;;;;;5084653;28;20043;-66
2022/06/05 12:34:15;;;;;;;1.20;1.20;;;19.60;61.50;;;;;;5087324;28;20060;-65
2022/06/05 12:37:04;;;;;;;1.40;1.38;;;19.60;62.30;;;;;;5084994;28;20123;-66
2022/06/05 12:39:37;;;;;;;1.40;1.40;;;19.60;62.20;;;;;;5085440;28;20438;-67
2022/06/05 12:42:30;;;;;;;1.30;1.30;;;19.60;61.90;;;;;;5085373;28;20074;-66
2022/06/05 12:45:06;;;;;;;1.60;1.50;;;19.60;62.10;;;;;;5099689;28;20039;-66
2022/06/05 12:48:12;;;;;;;1.55;1.45;;;19.60;62.20;;;;;;5084962;28;20457;-66
2022/06/05 12:51:08;;;;;;;1.27;1.27;;;19.70;62.60;;;;;;5084281;28;20052;-66
2022/06/05 12:54:01;;;;;;;1.30;1.20;;;19.70;61.90;;;;;;5085220;28;20336;-65
2022/06/05 12:56:50;;;;;;;1.77;1.50;;;19.80;61.70;;;;;;5095063;28;20127;-65
2022/06/05 12:59:40;;;;;;;2.00;1.75;;;19.80;61.70;;;;;;5092393;28;20393;-66
2022/06/05 13:02:40;;;;;;;1.20;1.20;;;19.80;62.20;;;;;;5087348;28;20405;-65
2022/06/05 13:05:32;;;;;;;1.40;1.40;;;19.80;61.70;;;;;;5097959;28;20078;-65
2022/06/05 13:08:09;;;;;;;1.55;1.50;;;19.80;62.10;;;;;;5086459;28;20049;-65
2022/06/05 13:10:51;;;;;;;1.42;1.42;;;19.80;61.80;;;;;;5087934;28;20048;-65
2022/06/05 13:13:58;;;;;;;2.20;2.00;;;19.80;62.40;;;;;;5093303;28;20047;-66
2022/06/05 13:16:44;;;;;;;1.55;1.50;;;19.80;62.60;;;;;;5084007;28;20105;-65
2022/06/05 13:19:26;;;;;;;1.30;1.30;;;19.80;62.90;;;;;;5093516;28;20407;-65
2022/06/05 13:22:11;;;;;;;1.65;1.55;;;19.90;62.80;;;;;;5088854;28;20100;-65
2022/06/05 13:24:51;;;;;;;1.45;1.42;;;19.90;62.90;;;;;;5099307;28;20043;-66
2022/06/05 13:27:51;;;;;;;1.50;1.40;;;19.90;63.20;;;;;;5107727;28;20079;-67
2022/06/05 13:30:28;;;;;;;1.52;1.42;;;20.00;62.70;;;;;;5095073;28;20546;-65
2022/06/05 13:33:14;;;;;;;1.20;1.20;;;20.00;62.40;;;;;;5106775;28;20668;-65
2022/06/05 13:36:21;;;;;;;1.35;1.27;;;20.00;62.90;;;;;;5109036;28;20108;-65
2022/06/05 13:39:02;;;;;;;1.30;1.30;;;20.10;62.40;;;;;;5093952;28;20259;-65
2022/06/05 13:41:41;;;;;;;1.77;1.67;;;20.00;62.70;;;;;;5106800;28;20389;-65
2022/06/05 13:44:20;;;;;;;1.50;1.40;;;20.10;62.80;;;;;;5098978;28;20040;-66
2022/06/05 13:47:12;;;;;;;1.50;1.50;;;20.10;62.70;;;;;;5094262;28;20044;-65
2022/06/05 13:49:44;;;;;;;;;;;20.10;62.80;;;;;;5088172;28;20519;-65
2022/06/05 13:52:38;;;;;;;1.40;1.30;;;20.10;62.70;;;;;;5089173;28;19989;-65
2022/06/05 13:55:29;;;;;;;1.25;1.25;;;20.10;62.60;;;;;;5087152;28;20040;-65
2022/06/05 13:58:15;;;;;;;1.73;1.63;;;20.10;62.10;;;;;;5102005;28;20472;-65
2022/06/05 14:01:09;;;;;;;1.42;1.42;;;20.20;63.00;;;;;;5066371;28;20044;-66